sensor_id;sensor_type;location;lat;lon;timestamp;pressure;altitude;pressure_sealevel;temperature
67353;BMP180;54238;52.278;21.056;2023-04-07T00:00:04;100312.60;;;5.72
67353;BMP180;54238;52.278;21.056;2023-04-07T00:02:55;100311.00;;;5.74
67353;BMP180;54238;52.278;21.056;2023-04-07T00:05:29;100308.60;;;5.80
67353;BMP180;54238;52.278;21.056;2023-04-07T00:07:58;100312.80;;;5.80
67353;BMP180;54238;52.278;21.056;2023-04-07T00:10:28;100312.40;;;5.80
67353;BMP180;54238;52.278;21.056;2023-04-07T00:12:57;100308.00;;;5.80
67353;BMP180;54238;52.278;21.056;2023-04-07T00:15:25;100307.20;;;5.86
67353;BMP180;54238;52.278;21.056;2023-04-07T00:17:55;100310.20;;;5.90
67353;BMP180;54238;52.278;21.056;2023-04-07T00:20:22;100311.40;;;5.90
67353;BMP180;54238;52.278;21.056;2023-04-07T00:22:52;100307.40;;;5.90
67353;BMP180;54238;52.278;21.056;2023-04-07T00:25:24;100304.60;;;5.90
67353;BMP180;54238;52.278;21.056;2023-04-07T00:27:53;100302.20;;;5.92
67353;BMP180;54238;52.278;21.056;2023-04-07T00:30:20;100303.60;;;5.92
67353;BMP180;54238;52.278;21.056;2023-04-07T00:32:49;100302.00;;;6.00
67353;BMP180;54238;52.278;21.056;2023-04-07T00:35:24;100300.20;;;6.00
67353;BMP180;54238;52.278;21.056;2023-04-07T00:37:51;100298.80;;;6.00
67353;BMP180;54238;52.278;21.056;2023-04-07T00:40:22;100294.60;;;6.00
67353;BMP180;54238;52.278;21.056;2023-04-07T00:42:49;100293.20;;;6.04
67353;BMP180;54238;52.278;21.056;2023-04-07T00:45:20;100295.80;;;6.10
67353;BMP180;54238;52.278;21.056;2023-04-07T00:47:52;100292.60;;;6.10
67353;BMP180;54238;52.278;21.056;2023-04-07T00:50:22;100295.00;;;6.10
67353;BMP180;54238;52.278;21.056;2023-04-07T00:52:51;100291.40;;;6.10
67353;BMP180;54238;52.278;21.056;2023-04-07T00:55:22;100291.80;;;6.10
67353;BMP180;54238;52.278;21.056;2023-04-07T00:57:51;100288.80;;;6.20
67353;BMP180;54238;52.278;21.056;2023-04-07T01:09:45;100287.00;;;6.20
67353;BMP180;54238;52.278;21.056;2023-04-07T01:12:50;100285.60;;;6.20
67353;BMP180;54238;52.278;21.056;2023-04-07T01:15:29;100285.20;;;6.20
67353;BMP180;54238;52.278;21.056;2023-04-07T01:18:26;100282.20;;;6.20
67353;BMP180;54238;52.278;21.056;2023-04-07T01:21:05;100281.20;;;6.20
67353;BMP180;54238;52.278;21.056;2023-04-07T01:26:34;100279.60;;;6.10
67353;BMP180;54238;52.278;21.056;2023-04-07T01:29:38;100278.80;;;6.10
67353;BMP180;54238;52.278;21.056;2023-04-07T01:32:11;100282.80;;;6.10
67353;BMP180;54238;52.278;21.056;2023-04-07T01:34:43;100273.40;;;6.10
67353;BMP180;54238;52.278;21.056;2023-04-07T01:37:12;100279.40;;;6.04
67353;BMP180;54238;52.278;21.056;2023-04-07T01:39:45;100275.20;;;6.00
67353;BMP180;54238;52.278;21.056;2023-04-07T01:42:16;100271.40;;;6.00
67353;BMP180;54238;52.278;21.056;2023-04-07T01:44:52;100272.40;;;6.00
67353;BMP180;54238;52.278;21.056;2023-04-07T01:47:22;100270.80;;;6.00
67353;BMP180;54238;52.278;21.056;2023-04-07T01:49:54;100267.80;;;6.00
67353;BMP180;54238;52.278;21.056;2023-04-07T01:52:28;100275.00;;;6.00
67353;BMP180;54238;52.278;21.056;2023-04-07T01:55:00;100263.00;;;6.00
67353;BMP180;54238;52.278;21.056;2023-04-07T01:57:28;100268.40;;;6.00
67353;BMP180;54238;52.278;21.056;2023-04-07T01:59:55;100265.60;;;6.00
67353;BMP180;54238;52.278;21.056;2023-04-07T02:02:27;100264.80;;;6.00
67353;BMP180;54238;52.278;21.056;2023-04-07T02:05:04;100271.40;;;6.00
67353;BMP180;54238;52.278;21.056;2023-04-07T02:08:00;100268.80;;;6.00
67353;BMP180;54238;52.278;21.056;2023-04-07T02:10:36;100268.20;;;6.04
67353;BMP180;54238;52.278;21.056;2023-04-07T02:13:15;100267.80;;;6.10
67353;BMP180;54238;52.278;21.056;2023-04-07T02:15:49;100268.80;;;6.10
67353;BMP180;54238;52.278;21.056;2023-04-07T02:18:18;100268.80;;;6.10
67353;BMP180;54238;52.278;21.056;2023-04-07T02:20:51;100265.60;;;6.04
67353;BMP180;54238;52.278;21.056;2023-04-07T02:23:20;100268.80;;;6.00
67353;BMP180;54238;52.278;21.056;2023-04-07T02:25:48;100269.20;;;6.10
67353;BMP180;54238;52.278;21.056;2023-04-07T02:28:22;100262.60;;;6.10
67353;BMP180;54238;52.278;21.056;2023-04-07T02:30:51;100268.20;;;6.10
67353;BMP180;54238;52.278;21.056;2023-04-07T02:33:18;100265.20;;;6.10
67353;BMP180;54238;52.278;21.056;2023-04-07T02:35:48;100261.20;;;6.18
67353;BMP180;54238;52.278;21.056;2023-04-07T02:38:15;100261.60;;;6.20
67353;BMP180;54238;52.278;21.056;2023-04-07T02:40:44;100264.20;;;6.20
67353;BMP180;54238;52.278;21.056;2023-04-07T02:43:19;100263.00;;;6.20
67353;BMP180;54238;52.278;21.056;2023-04-07T02:45:54;100265.00;;;6.22
67353;BMP180;54238;52.278;21.056;2023-04-07T02:48:21;100264.20;;;6.24
67353;BMP180;54238;52.278;21.056;2023-04-07T02:50:57;100265.00;;;6.30
67353;BMP180;54238;52.278;21.056;2023-04-07T02:53:27;100265.00;;;6.30
67353;BMP180;54238;52.278;21.056;2023-04-07T02:55:57;100263.40;;;6.30
67353;BMP180;54238;52.278;21.056;2023-04-07T02:58:29;100261.60;;;6.30
67353;BMP180;54238;52.278;21.056;2023-04-07T03:01:01;100261.40;;;6.30
67353;BMP180;54238;52.278;21.056;2023-04-07T03:03:35;100263.60;;;6.30
67353;BMP180;54238;52.278;21.056;2023-04-07T03:06:02;100264.60;;;6.30
67353;BMP180;54238;52.278;21.056;2023-04-07T03:08:32;100262.00;;;6.30
67353;BMP180;54238;52.278;21.056;2023-04-07T03:11:03;100266.00;;;6.30
67353;BMP180;54238;52.278;21.056;2023-04-07T03:13:31;100270.40;;;6.36
67353;BMP180;54238;52.278;21.056;2023-04-07T03:15:58;100270.60;;;6.40
67353;BMP180;54238;52.278;21.056;2023-04-07T03:18:30;100269.80;;;6.40
67353;BMP180;54238;52.278;21.056;2023-04-07T03:20:59;100270.20;;;6.40
67353;BMP180;54238;52.278;21.056;2023-04-07T03:23:28;100271.80;;;6.40
67353;BMP180;54238;52.278;21.056;2023-04-07T03:25:58;100272.20;;;6.40
67353;BMP180;54238;52.278;21.056;2023-04-07T03:28:25;100270.00;;;6.40
67353;BMP180;54238;52.278;21.056;2023-04-07T03:30:56;100270.80;;;6.40
67353;BMP180;54238;52.278;21.056;2023-04-07T03:33:26;100271.80;;;6.40
67353;BMP180;54238;52.278;21.056;2023-04-07T03:35:58;100274.80;;;6.40
67353;BMP180;54238;52.278;21.056;2023-04-07T03:38:25;100276.20;;;6.50
67353;BMP180;54238;52.278;21.056;2023-04-07T03:40:55;100271.20;;;6.50
67353;BMP180;54238;52.278;21.056;2023-04-07T03:43:22;100272.80;;;6.50
67353;BMP180;54238;52.278;21.056;2023-04-07T03:45:52;100274.40;;;6.50
67353;BMP180;54238;52.278;21.056;2023-04-07T03:48:23;100275.40;;;6.50
67353;BMP180;54238;52.278;21.056;2023-04-07T03:50:57;100274.40;;;6.50
67353;BMP180;54238;52.278;21.056;2023-04-07T03:53:24;100271.20;;;6.50
67353;BMP180;54238;52.278;21.056;2023-04-07T03:55:54;100271.60;;;6.60
67353;BMP180;54238;52.278;21.056;2023-04-07T03:58:23;100275.40;;;6.60
67353;BMP180;54238;52.278;21.056;2023-04-07T04:00:55;100274.20;;;6.60
67353;BMP180;54238;52.278;21.056;2023-04-07T04:03:23;100273.80;;;6.60
67353;BMP180;54238;52.278;21.056;2023-04-07T04:05:50;100273.80;;;6.60
67353;BMP180;54238;52.278;21.056;2023-04-07T04:08:17;100271.20;;;6.60
67353;BMP180;54238;52.278;21.056;2023-04-07T04:10:48;100272.80;;;6.60
67353;BMP180;54238;52.278;21.056;2023-04-07T04:13:17;100271.00;;;6.60
67353;BMP180;54238;52.278;21.056;2023-04-07T04:15:45;100276.80;;;6.60
67353;BMP180;54238;52.278;21.056;2023-04-07T04:18:14;100273.40;;;6.60
67353;BMP180;54238;52.278;21.056;2023-04-07T04:20:46;100273.40;;;6.68
67353;BMP180;54238;52.278;21.056;2023-04-07T04:23:17;100275.20;;;6.70
67353;BMP180;54238;52.278;21.056;2023-04-07T04:25:46;100282.00;;;6.70
67353;BMP180;54238;52.278;21.056;2023-04-07T04:28:21;100290.60;;;6.70
67353;BMP180;54238;52.278;21.056;2023-04-07T04:31:23;100290.80;;;6.70
67353;BMP180;54238;52.278;21.056;2023-04-07T04:33:52;100286.60;;;6.70
67353;BMP180;54238;52.278;21.056;2023-04-07T04:36:21;100289.20;;;6.70
67353;BMP180;54238;52.278;21.056;2023-04-07T04:38:55;100291.00;;;6.70
67353;BMP180;54238;52.278;21.056;2023-04-07T04:41:22;100289.00;;;6.70
67353;BMP180;54238;52.278;21.056;2023-04-07T04:43:50;100288.00;;;6.74
67353;BMP180;54238;52.278;21.056;2023-04-07T04:46:21;100292.20;;;6.80
67353;BMP180;54238;52.278;21.056;2023-04-07T04:48:49;100290.20;;;6.80
67353;BMP180;54238;52.278;21.056;2023-04-07T04:51:21;100294.80;;;6.80
67353;BMP180;54238;52.278;21.056;2023-04-07T04:53:51;100295.60;;;6.80
67353;BMP180;54238;52.278;21.056;2023-04-07T04:56:18;100296.20;;;6.80
67353;BMP180;54238;52.278;21.056;2023-04-07T04:58:47;100295.20;;;6.80
67353;BMP180;54238;52.278;21.056;2023-04-07T05:01:18;100297.60;;;6.80
67353;BMP180;54238;52.278;21.056;2023-04-07T05:03:48;100294.80;;;6.80
67353;BMP180;54238;52.278;21.056;2023-04-07T05:06:16;100297.40;;;6.80
67353;BMP180;54238;52.278;21.056;2023-04-07T05:08:45;100296.40;;;6.86
67353;BMP180;54238;52.278;21.056;2023-04-07T05:11:15;100296.00;;;6.90
67353;BMP180;54238;52.278;21.056;2023-04-07T05:13:46;100295.20;;;6.90
67353;BMP180;54238;52.278;21.056;2023-04-07T05:16:14;100292.20;;;6.90
67353;BMP180;54238;52.278;21.056;2023-04-07T05:18:43;100294.20;;;7.00
67353;BMP180;54238;52.278;21.056;2023-04-07T05:21:10;100297.40;;;7.00
67353;BMP180;54238;52.278;21.056;2023-04-07T05:23:37;100295.80;;;7.00
67353;BMP180;54238;52.278;21.056;2023-04-07T05:26:09;100296.40;;;7.00
67353;BMP180;54238;52.278;21.056;2023-04-07T05:28:36;100298.40;;;7.02
67353;BMP180;54238;52.278;21.056;2023-04-07T05:31:03;100299.40;;;7.08
67353;BMP180;54238;52.278;21.056;2023-04-07T05:33:33;100295.60;;;7.10
67353;BMP180;54238;52.278;21.056;2023-04-07T05:36:00;100295.40;;;7.10
67353;BMP180;54238;52.278;21.056;2023-04-07T05:38:27;100298.60;;;7.10
67353;BMP180;54238;52.278;21.056;2023-04-07T05:40:59;100303.20;;;7.12
67353;BMP180;54238;52.278;21.056;2023-04-07T05:43:31;100295.40;;;7.20
67353;BMP180;54238;52.278;21.056;2023-04-07T05:45:57;100300.40;;;7.20
67353;BMP180;54238;52.278;21.056;2023-04-07T05:48:29;100295.40;;;7.26
67353;BMP180;54238;52.278;21.056;2023-04-07T05:51:01;100300.20;;;7.30
67353;BMP180;54238;52.278;21.056;2023-04-07T05:53:30;100299.60;;;7.30
67353;BMP180;54238;52.278;21.056;2023-04-07T05:55:58;100308.40;;;7.40
67353;BMP180;54238;52.278;21.056;2023-04-07T05:58:27;100304.00;;;7.40
67353;BMP180;54238;52.278;21.056;2023-04-07T06:00:57;100304.40;;;7.40
67353;BMP180;54238;52.278;21.056;2023-04-07T06:03:24;100301.80;;;7.50
67353;BMP180;54238;52.278;21.056;2023-04-07T06:05:53;100306.00;;;7.50
67353;BMP180;54238;52.278;21.056;2023-04-07T06:08:23;100306.40;;;7.50
67353;BMP180;54238;52.278;21.056;2023-04-07T06:10:55;100305.20;;;7.50
67353;BMP180;54238;52.278;21.056;2023-04-07T06:13:22;100306.00;;;7.50
67353;BMP180;54238;52.278;21.056;2023-04-07T06:15:49;100299.40;;;7.50
67353;BMP180;54238;52.278;21.056;2023-04-07T06:18:18;100299.40;;;7.50
67353;BMP180;54238;52.278;21.056;2023-04-07T06:20:48;100299.80;;;7.54
67353;BMP180;54238;52.278;21.056;2023-04-07T06:23:15;100299.20;;;7.60
67353;BMP180;54238;52.278;21.056;2023-04-07T06:25:42;100293.60;;;7.60
67353;BMP180;54238;52.278;21.056;2023-04-07T06:28:11;100293.40;;;7.70
67353;BMP180;54238;52.278;21.056;2023-04-07T06:30:39;100293.60;;;7.76
67353;BMP180;54238;52.278;21.056;2023-04-07T06:33:08;100302.40;;;7.80
67353;BMP180;54238;52.278;21.056;2023-04-07T06:35:38;100301.00;;;7.90
67353;BMP180;54238;52.278;21.056;2023-04-07T06:38:11;100298.40;;;7.96
67353;BMP180;54238;52.278;21.056;2023-04-07T06:40:44;100294.00;;;8.00
67353;BMP180;54238;52.278;21.056;2023-04-07T06:43:11;100295.00;;;8.10
67353;BMP180;54238;52.278;21.056;2023-04-07T06:45:40;100294.00;;;8.10
67353;BMP180;54238;52.278;21.056;2023-04-07T06:48:12;100297.60;;;8.20
67353;BMP180;54238;52.278;21.056;2023-04-07T06:50:39;100301.20;;;8.30
67353;BMP180;54238;52.278;21.056;2023-04-07T06:53:08;100301.60;;;8.40
67353;BMP180;54238;52.278;21.056;2023-04-07T06:55:35;100303.20;;;8.50
67353;BMP180;54238;52.278;21.056;2023-04-07T06:58:02;100295.00;;;8.54
67353;BMP180;54238;52.278;21.056;2023-04-07T07:00:30;100299.80;;;8.60
67353;BMP180;54238;52.278;21.056;2023-04-07T07:02:59;100300.00;;;8.60
67353;BMP180;54238;52.278;21.056;2023-04-07T07:05:31;100302.40;;;8.60
67353;BMP180;54238;52.278;21.056;2023-04-07T07:08:02;100300.20;;;8.60
67353;BMP180;54238;52.278;21.056;2023-04-07T07:10:30;100296.40;;;8.70
67353;BMP180;54238;52.278;21.056;2023-04-07T07:12:59;100296.00;;;8.70
67353;BMP180;54238;52.278;21.056;2023-04-07T07:15:29;100292.40;;;8.70
67353;BMP180;54238;52.278;21.056;2023-04-07T07:18:01;100296.00;;;8.70
67353;BMP180;54238;52.278;21.056;2023-04-07T07:20:30;100301.00;;;8.80
67353;BMP180;54238;52.278;21.056;2023-04-07T07:23:00;100304.40;;;8.80
67353;BMP180;54238;52.278;21.056;2023-04-07T07:25:27;100306.60;;;8.86
67353;BMP180;54238;52.278;21.056;2023-04-07T07:27:57;100305.00;;;8.90
67353;BMP180;54238;52.278;21.056;2023-04-07T07:30:29;100306.20;;;9.00
67353;BMP180;54238;52.278;21.056;2023-04-07T07:32:59;100307.80;;;9.10
67353;BMP180;54238;52.278;21.056;2023-04-07T07:35:29;100314.60;;;9.20
67353;BMP180;54238;52.278;21.056;2023-04-07T07:37:58;100319.40;;;9.24
67353;BMP180;54238;52.278;21.056;2023-04-07T07:40:27;100319.20;;;9.30
67353;BMP180;54238;52.278;21.056;2023-04-07T07:42:55;100319.40;;;9.40
67353;BMP180;54238;52.278;21.056;2023-04-07T07:45:25;100320.80;;;9.42
67353;BMP180;54238;52.278;21.056;2023-04-07T07:47:54;100320.20;;;9.50
67353;BMP180;54238;52.278;21.056;2023-04-07T07:50:21;100322.20;;;9.60
67353;BMP180;54238;52.278;21.056;2023-04-07T07:52:48;100326.60;;;9.66
67353;BMP180;54238;52.278;21.056;2023-04-07T07:55:18;100325.60;;;9.70
67353;BMP180;54238;52.278;21.056;2023-04-07T07:57:45;100326.00;;;9.70
67353;BMP180;54238;52.278;21.056;2023-04-07T08:00:12;100332.80;;;9.70
67353;BMP180;54238;52.278;21.056;2023-04-07T08:02:45;100335.60;;;9.70
67353;BMP180;54238;52.278;21.056;2023-04-07T08:05:12;100335.40;;;9.70
67353;BMP180;54238;52.278;21.056;2023-04-07T08:07:39;100336.80;;;9.70
67353;BMP180;54238;52.278;21.056;2023-04-07T08:10:09;100334.20;;;9.70
67353;BMP180;54238;52.278;21.056;2023-04-07T08:12:40;100337.20;;;9.70
67353;BMP180;54238;52.278;21.056;2023-04-07T08:15:10;100332.80;;;9.80
67353;BMP180;54238;52.278;21.056;2023-04-07T08:17:37;100333.60;;;9.82
67353;BMP180;54238;52.278;21.056;2023-04-07T08:20:06;100335.20;;;9.90
67353;BMP180;54238;52.278;21.056;2023-04-07T08:22:35;100335.80;;;10.00
67353;BMP180;54238;52.278;21.056;2023-04-07T08:25:02;100338.80;;;10.10
67353;BMP180;54238;52.278;21.056;2023-04-07T08:27:32;100335.80;;;10.20
67353;BMP180;54238;52.278;21.056;2023-04-07T08:30:04;100335.80;;;10.30
67353;BMP180;54238;52.278;21.056;2023-04-07T08:32:41;100338.60;;;10.30
67353;BMP180;54238;52.278;21.056;2023-04-07T08:35:12;100334.80;;;10.40
67353;BMP180;54238;52.278;21.056;2023-04-07T08:37:42;100328.20;;;10.50
67353;BMP180;54238;52.278;21.056;2023-04-07T08:40:13;100338.00;;;10.60
67353;BMP180;54238;52.278;21.056;2023-04-07T08:42:45;100327.60;;;10.70
67353;BMP180;54238;52.278;21.056;2023-04-07T08:45:19;100326.00;;;10.80
67353;BMP180;54238;52.278;21.056;2023-04-07T08:47:54;100323.00;;;10.80
67353;BMP180;54238;52.278;21.056;2023-04-07T08:50:32;100320.80;;;10.96
67353;BMP180;54238;52.278;21.056;2023-04-07T08:53:05;100326.20;;;11.10
67353;BMP180;54238;52.278;21.056;2023-04-07T08:55:36;100329.60;;;11.20
67353;BMP180;54238;52.278;21.056;2023-04-07T08:58:11;100333.80;;;11.20
67353;BMP180;54238;52.278;21.056;2023-04-07T09:00:42;100330.80;;;11.30
67353;BMP180;54238;52.278;21.056;2023-04-07T09:03:11;100336.80;;;11.40
67353;BMP180;54238;52.278;21.056;2023-04-07T09:05:39;100332.60;;;11.40
67353;BMP180;54238;52.278;21.056;2023-04-07T09:08:07;100327.80;;;11.50
67353;BMP180;54238;52.278;21.056;2023-04-07T09:10:35;100328.00;;;11.50
67353;BMP180;54238;52.278;21.056;2023-04-07T09:13:05;100336.80;;;11.52
67353;BMP180;54238;52.278;21.056;2023-04-07T09:15:32;100329.20;;;11.50
67353;BMP180;54238;52.278;21.056;2023-04-07T09:18:00;100331.00;;;11.60
67353;BMP180;54238;52.278;21.056;2023-04-07T09:20:27;100334.60;;;11.60
67353;BMP180;54238;52.278;21.056;2023-04-07T09:22:54;100330.60;;;11.64
67353;BMP180;54238;52.278;21.056;2023-04-07T09:25:23;100328.60;;;11.60
67353;BMP180;54238;52.278;21.056;2023-04-07T09:28:04;100329.80;;;11.60
67353;BMP180;54238;52.278;21.056;2023-04-07T09:30:33;100323.60;;;11.60
67353;BMP180;54238;52.278;21.056;2023-04-07T09:33:01;100326.80;;;11.60
67353;BMP180;54238;52.278;21.056;2023-04-07T09:35:30;100323.60;;;11.60
67353;BMP180;54238;52.278;21.056;2023-04-07T09:46:31;100319.40;;;11.80
67353;BMP180;54238;52.278;21.056;2023-04-07T09:49:04;100321.00;;;11.80
67353;BMP180;54238;52.278;21.056;2023-04-07T09:51:31;100324.60;;;11.80
67353;BMP180;54238;52.278;21.056;2023-04-07T09:54:00;100321.80;;;11.90
67353;BMP180;54238;52.278;21.056;2023-04-07T09:56:28;100319.80;;;12.00
67353;BMP180;54238;52.278;21.056;2023-04-07T09:59:01;100316.80;;;12.06
67353;BMP180;54238;52.278;21.056;2023-04-07T10:01:34;100326.60;;;12.10
67353;BMP180;54238;52.278;21.056;2023-04-07T10:04:03;100325.80;;;12.02
67353;BMP180;54238;52.278;21.056;2023-04-07T10:06:33;100325.20;;;12.00
67353;BMP180;54238;52.278;21.056;2023-04-07T10:09:08;100331.20;;;12.06
67353;BMP180;54238;52.278;21.056;2023-04-07T10:11:43;100333.00;;;12.10
67353;BMP180;54238;52.278;21.056;2023-04-07T10:14:13;100329.20;;;12.10
67353;BMP180;54238;52.278;21.056;2023-04-07T10:16:48;100334.00;;;12.10
67353;BMP180;54238;52.278;21.056;2023-04-07T10:19:18;100337.60;;;12.10
67353;BMP180;54238;52.278;21.056;2023-04-07T10:21:53;100334.80;;;12.10
67353;BMP180;54238;52.278;21.056;2023-04-07T10:27:16;100339.20;;;12.10
67353;BMP180;54238;52.278;21.056;2023-04-07T10:29:49;100339.60;;;12.10
67353;BMP180;54238;52.278;21.056;2023-04-07T10:32:28;100340.00;;;12.10
67353;BMP180;54238;52.278;21.056;2023-04-07T10:34:58;100342.00;;;12.10
67353;BMP180;54238;52.278;21.056;2023-04-07T10:37:28;100341.40;;;12.10
67353;BMP180;54238;52.278;21.056;2023-04-07T10:42:54;100341.20;;;12.20
67353;BMP180;54238;52.278;21.056;2023-04-07T10:48:18;100339.60;;;12.30
67353;BMP180;54238;52.278;21.056;2023-04-07T10:51:18;100344.20;;;12.30
67353;BMP180;54238;52.278;21.056;2023-04-07T10:54:23;100344.60;;;12.36
67353;BMP180;54238;52.278;21.056;2023-04-07T10:59:32;100353.60;;;12.40
67353;BMP180;54238;52.278;21.056;2023-04-07T11:04:45;100353.00;;;12.50
67353;BMP180;54238;52.278;21.056;2023-04-07T11:07:14;100351.20;;;12.60
67353;BMP180;54238;52.278;21.056;2023-04-07T11:09:42;100353.80;;;12.70
67353;BMP180;54238;52.278;21.056;2023-04-07T11:12:22;100356.40;;;12.88
67353;BMP180;54238;52.278;21.056;2023-04-07T11:14:52;100357.60;;;13.00
67353;BMP180;54238;52.278;21.056;2023-04-07T11:17:24;100356.40;;;13.18
67353;BMP180;54238;52.278;21.056;2023-04-07T11:19:56;100360.80;;;13.30
67353;BMP180;54238;52.278;21.056;2023-04-07T11:22:24;100352.40;;;13.46
67353;BMP180;54238;52.278;21.056;2023-04-07T11:24:53;100354.20;;;13.56
67353;BMP180;54238;52.278;21.056;2023-04-07T11:27:25;100354.80;;;13.50
67353;BMP180;54238;52.278;21.056;2023-04-07T11:29:56;100352.00;;;13.50
67353;BMP180;54238;52.278;21.056;2023-04-07T11:32:27;100358.00;;;13.50
67353;BMP180;54238;52.278;21.056;2023-04-07T11:34:56;100354.40;;;13.40
67353;BMP180;54238;52.278;21.056;2023-04-07T11:37:27;100356.40;;;13.28
67353;BMP180;54238;52.278;21.056;2023-04-07T11:39:59;100356.00;;;13.10
67353;BMP180;54238;52.278;21.056;2023-04-07T11:42:39;100365.60;;;13.00
67353;BMP180;54238;52.278;21.056;2023-04-07T11:45:18;100367.60;;;12.80
67353;BMP180;54238;52.278;21.056;2023-04-07T11:47:53;100366.40;;;12.70
67353;BMP180;54238;52.278;21.056;2023-04-07T11:50:40;100368.00;;;12.60
67353;BMP180;54238;52.278;21.056;2023-04-07T11:53:11;100365.60;;;12.44
67353;BMP180;54238;52.278;21.056;2023-04-07T11:55:44;100363.00;;;12.30
67353;BMP180;54238;52.278;21.056;2023-04-07T11:58:18;100367.20;;;12.20
67353;BMP180;54238;52.278;21.056;2023-04-07T12:01:03;100367.00;;;12.20
67353;BMP180;54238;52.278;21.056;2023-04-07T12:03:36;100370.40;;;12.10
67353;BMP180;54238;52.278;21.056;2023-04-07T12:06:06;100376.60;;;12.10
67353;BMP180;54238;52.278;21.056;2023-04-07T12:08:42;100376.00;;;12.10
67353;BMP180;54238;52.278;21.056;2023-04-07T12:11:16;100375.20;;;12.10
67353;BMP180;54238;52.278;21.056;2023-04-07T12:13:45;100373.80;;;12.00
67353;BMP180;54238;52.278;21.056;2023-04-07T12:16:12;100373.40;;;12.00
67353;BMP180;54238;52.278;21.056;2023-04-07T12:18:42;100377.00;;;12.10
67353;BMP180;54238;52.278;21.056;2023-04-07T12:21:10;100376.80;;;12.20
67353;BMP180;54238;52.278;21.056;2023-04-07T12:23:37;100380.60;;;12.20
67353;BMP180;54238;52.278;21.056;2023-04-07T12:26:04;100375.40;;;12.30
67353;BMP180;54238;52.278;21.056;2023-04-07T12:28:33;100377.80;;;12.40
67353;BMP180;54238;52.278;21.056;2023-04-07T12:31:03;100378.40;;;12.50
67353;BMP180;54238;52.278;21.056;2023-04-07T12:33:31;100384.80;;;12.60
67353;BMP180;54238;52.278;21.056;2023-04-07T12:36:01;100382.60;;;12.60
67353;BMP180;54238;52.278;21.056;2023-04-07T12:38:34;100387.20;;;12.70
67353;BMP180;54238;52.278;21.056;2023-04-07T12:41:03;100388.20;;;12.90
67353;BMP180;54238;52.278;21.056;2023-04-07T12:43:34;100391.40;;;13.00
67353;BMP180;54238;52.278;21.056;2023-04-07T12:46:05;100387.20;;;13.00
67353;BMP180;54238;52.278;21.056;2023-04-07T12:48:32;100393.80;;;13.08
67353;BMP180;54238;52.278;21.056;2023-04-07T12:51:02;100388.20;;;13.00
67353;BMP180;54238;52.278;21.056;2023-04-07T12:53:34;100392.80;;;12.90
67353;BMP180;54238;52.278;21.056;2023-04-07T12:56:04;100393.80;;;12.90
67353;BMP180;54238;52.278;21.056;2023-04-07T12:58:33;100401.80;;;12.80
67353;BMP180;54238;52.278;21.056;2023-04-07T13:01:03;100403.60;;;12.70
67353;BMP180;54238;52.278;21.056;2023-04-07T13:03:32;100407.00;;;12.70
67353;BMP180;54238;52.278;21.056;2023-04-07T13:06:02;100406.80;;;12.60
67353;BMP180;54238;52.278;21.056;2023-04-07T13:08:32;100408.00;;;12.56
67353;BMP180;54238;52.278;21.056;2023-04-07T13:11:04;100409.60;;;12.50
67353;BMP180;54238;52.278;21.056;2023-04-07T13:13:31;100411.80;;;12.50
67353;BMP180;54238;52.278;21.056;2023-04-07T13:15:59;100416.40;;;12.46
67353;BMP180;54238;52.278;21.056;2023-04-07T13:18:27;100415.20;;;12.50
67353;BMP180;54238;52.278;21.056;2023-04-07T13:20:56;100416.60;;;12.50
67353;BMP180;54238;52.278;21.056;2023-04-07T13:23:23;100426.60;;;12.50
67353;BMP180;54238;52.278;21.056;2023-04-07T13:25:50;100429.20;;;12.50
67353;BMP180;54238;52.278;21.056;2023-04-07T13:28:17;100437.00;;;12.50
67353;BMP180;54238;52.278;21.056;2023-04-07T13:30:51;100431.20;;;12.44
67353;BMP180;54238;52.278;21.056;2023-04-07T13:33:20;100429.40;;;12.40
67353;BMP180;54238;52.278;21.056;2023-04-07T13:35:50;100436.20;;;12.40
67353;BMP180;54238;52.278;21.056;2023-04-07T13:38:17;100436.00;;;12.40
67353;BMP180;54238;52.278;21.056;2023-04-07T13:40:48;100443.00;;;12.40
67353;BMP180;54238;52.278;21.056;2023-04-07T13:43:20;100448.60;;;12.30
67353;BMP180;54238;52.278;21.056;2023-04-07T13:45:50;100448.20;;;12.24
67353;BMP180;54238;52.278;21.056;2023-04-07T13:48:22;100451.80;;;12.20
67353;BMP180;54238;52.278;21.056;2023-04-07T13:50:55;100444.40;;;12.30
67353;BMP180;54238;52.278;21.056;2023-04-07T13:53:22;100450.00;;;12.34
67353;BMP180;54238;52.278;21.056;2023-04-07T13:55:51;100442.00;;;12.40
67353;BMP180;54238;52.278;21.056;2023-04-07T13:58:18;100435.80;;;12.50
67353;BMP180;54238;52.278;21.056;2023-04-07T14:00:45;100449.00;;;12.60
67353;BMP180;54238;52.278;21.056;2023-04-07T14:03:14;100450.80;;;12.72
67353;BMP180;54238;52.278;21.056;2023-04-07T14:05:44;100446.40;;;12.90
67353;BMP180;54238;52.278;21.056;2023-04-07T14:08:11;100447.20;;;13.10
67353;BMP180;54238;52.278;21.056;2023-04-07T14:10:43;100452.40;;;13.20
67353;BMP180;54238;52.278;21.056;2023-04-07T14:13:15;100445.60;;;13.30
67353;BMP180;54238;52.278;21.056;2023-04-07T14:15:45;100453.00;;;13.30
67353;BMP180;54238;52.278;21.056;2023-04-07T14:18:12;100449.00;;;13.30
67353;BMP180;54238;52.278;21.056;2023-04-07T14:20:42;100448.00;;;13.30
67353;BMP180;54238;52.278;21.056;2023-04-07T14:23:09;100449.80;;;13.30
67353;BMP180;54238;52.278;21.056;2023-04-07T14:25:46;100449.40;;;13.30
67353;BMP180;54238;52.278;21.056;2023-04-07T14:28:18;100448.00;;;13.30
67353;BMP180;54238;52.278;21.056;2023-04-07T14:30:56;100453.80;;;13.30
67353;BMP180;54238;52.278;21.056;2023-04-07T14:33:23;100462.80;;;13.20
67353;BMP180;54238;52.278;21.056;2023-04-07T14:35:50;100467.00;;;13.20
67353;BMP180;54238;52.278;21.056;2023-04-07T14:38:22;100466.80;;;13.08
67353;BMP180;54238;52.278;21.056;2023-04-07T14:40:51;100474.20;;;13.00
67353;BMP180;54238;52.278;21.056;2023-04-07T14:43:18;100476.40;;;12.90
67353;BMP180;54238;52.278;21.056;2023-04-07T14:45:48;100473.80;;;12.90